sensor_id;sensor_type;location;lat;lon;timestamp;P1;durP1;ratioP1;P2;durP2;ratioP2
58972;SDS011;44750;52.040;7.472;2023-07-22T00:02:31;2.72;;;2.17;;
58972;SDS011;44750;52.040;7.472;2023-07-22T00:07:32;4.32;;;2.83;;
58972;SDS011;44750;52.040;7.472;2023-07-22T00:12:33;4.20;;;2.63;;
58972;SDS011;44750;52.040;7.472;2023-07-22T00:17:34;4.15;;;2.80;;
58972;SDS011;44750;52.040;7.472;2023-07-22T00:22:34;4.38;;;2.58;;
58972;SDS011;44750;52.040;7.472;2023-07-22T00:27:34;4.07;;;2.67;;
58972;SDS011;44750;52.040;7.472;2023-07-22T00:32:35;3.88;;;2.53;;
58972;SDS011;44750;52.040;7.472;2023-07-22T00:37:35;2.50;;;2.30;;
58972;SDS011;44750;52.040;7.472;2023-07-22T00:42:35;4.82;;;2.83;;
58972;SDS011;44750;52.040;7.472;2023-07-22T00:47:36;5.22;;;2.67;;
58972;SDS011;44750;52.040;7.472;2023-07-22T00:52:37;4.93;;;2.65;;
58972;SDS011;44750;52.040;7.472;2023-07-22T00:57:38;5.10;;;2.45;;
58972;SDS011;44750;52.040;7.472;2023-07-22T01:02:39;5.40;;;2.58;;
58972;SDS011;44750;52.040;7.472;2023-07-22T01:07:40;2.83;;;2.30;;
58972;SDS011;44750;52.040;7.472;2023-07-22T01:12:43;22.38;;;2.65;;
58972;SDS011;44750;52.040;7.472;2023-07-22T01:17:44;4.78;;;2.63;;
58972;SDS011;44750;52.040;7.472;2023-07-22T01:22:51;2.58;;;2.20;;
58972;SDS011;44750;52.040;7.472;2023-07-22T01:27:51;4.78;;;2.88;;
58972;SDS011;44750;52.040;7.472;2023-07-22T01:32:52;2.67;;;2.10;;
58972;SDS011;44750;52.040;7.472;2023-07-22T01:37:52;4.60;;;2.77;;
58972;SDS011;44750;52.040;7.472;2023-07-22T01:42:52;5.28;;;2.70;;
58972;SDS011;44750;52.040;7.472;2023-07-22T01:47:53;4.32;;;2.90;;
58972;SDS011;44750;52.040;7.472;2023-07-22T01:52:53;3.80;;;2.63;;
58972;SDS011;44750;52.040;7.472;2023-07-22T01:57:53;3.33;;;2.37;;
58972;SDS011;44750;52.040;7.472;2023-07-22T02:02:54;2.70;;;2.35;;
58972;SDS011;44750;52.040;7.472;2023-07-22T02:07:54;10.52;;;2.90;;
58972;SDS011;44750;52.040;7.472;2023-07-22T02:12:57;2.92;;;2.65;;
58972;SDS011;44750;52.040;7.472;2023-07-22T02:17:57;6.50;;;3.08;;
58972;SDS011;44750;52.040;7.472;2023-07-22T02:22:58;8.88;;;2.97;;
58972;SDS011;44750;52.040;7.472;2023-07-22T02:27:58;4.78;;;3.17;;
58972;SDS011;44750;52.040;7.472;2023-07-22T02:32:58;5.57;;;3.05;;
58972;SDS011;44750;52.040;7.472;2023-07-22T02:37:58;4.38;;;3.38;;
58972;SDS011;44750;52.040;7.472;2023-07-22T02:42:59;13.75;;;3.40;;
58972;SDS011;44750;52.040;7.472;2023-07-22T02:47:59;7.03;;;3.58;;
58972;SDS011;44750;52.040;7.472;2023-07-22T02:52:59;3.67;;;3.08;;
58972;SDS011;44750;52.040;7.472;2023-07-22T02:57:59;3.80;;;3.22;;
58972;SDS011;44750;52.040;7.472;2023-07-22T03:02:59;4.40;;;3.15;;
58972;SDS011;44750;52.040;7.472;2023-07-22T03:08:00;3.35;;;3.03;;
58972;SDS011;44750;52.040;7.472;2023-07-22T03:13:00;4.28;;;3.38;;
58972;SDS011;44750;52.040;7.472;2023-07-22T03:18:00;9.20;;;3.30;;
58972;SDS011;44750;52.040;7.472;2023-07-22T03:23:00;6.20;;;3.78;;
58972;SDS011;44750;52.040;7.472;2023-07-22T03:28:02;12.77;;;4.18;;
58972;SDS011;44750;52.040;7.472;2023-07-22T03:33:03;4.30;;;3.25;;
58972;SDS011;44750;52.040;7.472;2023-07-22T03:38:04;3.22;;;2.78;;
58972;SDS011;44750;52.040;7.472;2023-07-22T03:43:04;5.95;;;3.88;;
58972;SDS011;44750;52.040;7.472;2023-07-22T03:48:05;5.22;;;3.42;;
58972;SDS011;44750;52.040;7.472;2023-07-22T03:53:05;4.75;;;3.10;;
58972;SDS011;44750;52.040;7.472;2023-07-22T03:58:05;8.60;;;3.30;;
58972;SDS011;44750;52.040;7.472;2023-07-22T04:03:05;7.15;;;4.47;;
58972;SDS011;44750;52.040;7.472;2023-07-22T04:08:05;28.65;;;3.95;;
58972;SDS011;44750;52.040;7.472;2023-07-22T04:13:06;6.07;;;4.50;;
58972;SDS011;44750;52.040;7.472;2023-07-22T04:18:06;5.30;;;4.00;;
58972;SDS011;44750;52.040;7.472;2023-07-22T04:23:06;5.38;;;4.55;;
58972;SDS011;44750;52.040;7.472;2023-07-22T04:28:06;10.70;;;3.88;;
58972;SDS011;44750;52.040;7.472;2023-07-22T04:33:07;8.70;;;5.10;;
58972;SDS011;44750;52.040;7.472;2023-07-22T04:38:07;11.18;;;4.50;;
58972;SDS011;44750;52.040;7.472;2023-07-22T04:43:07;4.05;;;3.65;;
58972;SDS011;44750;52.040;7.472;2023-07-22T04:48:07;5.93;;;4.28;;
58972;SDS011;44750;52.040;7.472;2023-07-22T04:53:08;8.13;;;4.50;;
58972;SDS011;44750;52.040;7.472;2023-07-22T04:58:08;6.95;;;4.75;;
58972;SDS011;44750;52.040;7.472;2023-07-22T05:03:08;6.40;;;4.72;;
58972;SDS011;44750;52.040;7.472;2023-07-22T05:08:09;6.40;;;5.25;;
58972;SDS011;44750;52.040;7.472;2023-07-22T05:13:09;6.75;;;3.55;;
58972;SDS011;44750;52.040;7.472;2023-07-22T05:18:09;5.55;;;4.22;;
58972;SDS011;44750;52.040;7.472;2023-07-22T05:23:09;4.43;;;3.85;;
58972;SDS011;44750;52.040;7.472;2023-07-22T05:28:09;5.53;;;3.90;;
58972;SDS011;44750;52.040;7.472;2023-07-22T05:33:10;5.70;;;4.00;;
58972;SDS011;44750;52.040;7.472;2023-07-22T05:38:10;4.57;;;4.00;;
58972;SDS011;44750;52.040;7.472;2023-07-22T05:43:10;6.88;;;4.95;;
58972;SDS011;44750;52.040;7.472;2023-07-22T05:48:10;5.97;;;4.25;;
58972;SDS011;44750;52.040;7.472;2023-07-22T05:53:12;6.38;;;4.72;;
58972;SDS011;44750;52.040;7.472;2023-07-22T05:58:16;4.63;;;3.85;;
58972;SDS011;44750;52.040;7.472;2023-07-22T06:08:17;7.40;;;4.85;;
58972;SDS011;44750;52.040;7.472;2023-07-22T06:13:17;6.63;;;5.22;;
58972;SDS011;44750;52.040;7.472;2023-07-22T06:18:18;5.85;;;4.53;;
58972;SDS011;44750;52.040;7.472;2023-07-22T06:23:18;7.72;;;4.03;;
58972;SDS011;44750;52.040;7.472;2023-07-22T06:28:18;5.05;;;4.13;;
58972;SDS011;44750;52.040;7.472;2023-07-22T06:33:18;6.68;;;3.83;;
58972;SDS011;44750;52.040;7.472;2023-07-22T06:38:19;6.18;;;4.22;;
58972;SDS011;44750;52.040;7.472;2023-07-22T06:43:19;6.65;;;4.40;;
58972;SDS011;44750;52.040;7.472;2023-07-22T06:48:19;8.32;;;3.97;;
58972;SDS011;44750;52.040;7.472;2023-07-22T06:53:20;10.20;;;4.20;;
58972;SDS011;44750;52.040;7.472;2023-07-22T06:58:20;6.60;;;4.30;;
58972;SDS011;44750;52.040;7.472;2023-07-22T07:03:20;9.85;;;4.60;;
58972;SDS011;44750;52.040;7.472;2023-07-22T07:08:21;6.30;;;4.20;;
58972;SDS011;44750;52.040;7.472;2023-07-22T07:13:21;10.98;;;3.63;;
58972;SDS011;44750;52.040;7.472;2023-07-22T07:18:21;6.82;;;4.45;;
58972;SDS011;44750;52.040;7.472;2023-07-22T07:23:22;5.53;;;4.13;;
58972;SDS011;44750;52.040;7.472;2023-07-22T07:28:22;5.05;;;4.43;;
58972;SDS011;44750;52.040;7.472;2023-07-22T07:33:22;4.95;;;3.65;;
58972;SDS011;44750;52.040;7.472;2023-07-22T07:38:23;5.43;;;3.97;;
58972;SDS011;44750;52.040;7.472;2023-07-22T07:43:23;6.35;;;3.72;;
58972;SDS011;44750;52.040;7.472;2023-07-22T07:48:23;7.53;;;3.93;;
58972;SDS011;44750;52.040;7.472;2023-07-22T07:53:23;5.38;;;3.30;;
58972;SDS011;44750;52.040;7.472;2023-07-22T07:58:23;10.73;;;4.13;;
58972;SDS011;44750;52.040;7.472;2023-07-22T08:03:24;7.18;;;3.17;;
58972;SDS011;44750;52.040;7.472;2023-07-22T08:08:24;6.70;;;3.65;;
58972;SDS011;44750;52.040;7.472;2023-07-22T08:13:24;5.93;;;3.22;;
58972;SDS011;44750;52.040;7.472;2023-07-22T08:18:27;20.63;;;3.93;;
58972;SDS011;44750;52.040;7.472;2023-07-22T08:23:27;6.43;;;3.40;;
58972;SDS011;44750;52.040;7.472;2023-07-22T08:28:28;5.40;;;3.53;;
58972;SDS011;44750;52.040;7.472;2023-07-22T08:33:29;6.30;;;3.75;;
58972;SDS011;44750;52.040;7.472;2023-07-22T08:38:30;6.40;;;3.78;;
58972;SDS011;44750;52.040;7.472;2023-07-22T08:43:30;6.00;;;4.00;;
58972;SDS011;44750;52.040;7.472;2023-07-22T08:48:39;6.80;;;4.50;;
58972;SDS011;44750;52.040;7.472;2023-07-22T08:53:41;4.07;;;3.55;;
58972;SDS011;44750;52.040;7.472;2023-07-22T08:58:43;5.57;;;3.92;;
58972;SDS011;44750;52.040;7.472;2023-07-22T09:03:45;7.20;;;3.30;;
58972;SDS011;44750;52.040;7.472;2023-07-22T09:08:47;12.85;;;4.68;;
58972;SDS011;44750;52.040;7.472;2023-07-22T09:13:47;5.45;;;3.53;;
58972;SDS011;44750;52.040;7.472;2023-07-22T09:18:50;3.63;;;3.30;;
58972;SDS011;44750;52.040;7.472;2023-07-22T09:23:54;4.38;;;3.22;;
58972;SDS011;44750;52.040;7.472;2023-07-22T09:28:55;3.67;;;3.17;;
58972;SDS011;44750;52.040;7.472;2023-07-22T09:34:08;5.18;;;3.25;;
58972;SDS011;44750;52.040;7.472;2023-07-22T09:39:09;5.65;;;3.10;;
58972;SDS011;44750;52.040;7.472;2023-07-22T09:44:14;5.53;;;2.85;;
58972;SDS011;44750;52.040;7.472;2023-07-22T09:49:15;6.27;;;3.00;;
58972;SDS011;44750;52.040;7.472;2023-07-22T09:54:17;3.97;;;3.08;;
58972;SDS011;44750;52.040;7.472;2023-07-22T09:59:19;3.55;;;2.42;;
58972;SDS011;44750;52.040;7.472;2023-07-22T10:04:21;3.92;;;2.90;;
58972;SDS011;44750;52.040;7.472;2023-07-22T10:09:28;3.78;;;2.10;;
58972;SDS011;44750;52.040;7.472;2023-07-22T10:14:29;4.13;;;2.33;;
58972;SDS011;44750;52.040;7.472;2023-07-22T10:19:30;2.22;;;2.03;;
58972;SDS011;44750;52.040;7.472;2023-07-22T10:24:31;2.05;;;1.73;;
58972;SDS011;44750;52.040;7.472;2023-07-22T10:29:33;3.80;;;2.55;;
58972;SDS011;44750;52.040;7.472;2023-07-22T10:34:34;3.38;;;1.95;;
58972;SDS011;44750;52.040;7.472;2023-07-22T10:39:34;1.63;;;1.27;;
58972;SDS011;44750;52.040;7.472;2023-07-22T10:44:37;3.03;;;2.22;;
58972;SDS011;44750;52.040;7.472;2023-07-22T10:49:42;3.97;;;1.98;;
58972;SDS011;44750;52.040;7.472;2023-07-22T10:54:47;3.53;;;2.17;;
58972;SDS011;44750;52.040;7.472;2023-07-22T10:59:51;3.88;;;2.50;;
58972;SDS011;44750;52.040;7.472;2023-07-22T11:04:52;2.42;;;2.05;;
58972;SDS011;44750;52.040;7.472;2023-07-22T11:09:53;4.67;;;2.00;;
58972;SDS011;44750;52.040;7.472;2023-07-22T11:15:03;4.63;;;2.45;;
58972;SDS011;44750;52.040;7.472;2023-07-22T11:20:04;4.75;;;2.10;;
58972;SDS011;44750;52.040;7.472;2023-07-22T11:25:04;3.28;;;1.92;;
58972;SDS011;44750;52.040;7.472;2023-07-22T11:30:05;2.88;;;1.70;;
58972;SDS011;44750;52.040;7.472;2023-07-22T11:35:06;2.40;;;1.42;;
58972;SDS011;44750;52.040;7.472;2023-07-22T11:40:06;2.00;;;1.65;;
58972;SDS011;44750;52.040;7.472;2023-07-22T11:45:11;4.78;;;1.80;;
58972;SDS011;44750;52.040;7.472;2023-07-22T11:50:11;2.70;;;1.27;;
58972;SDS011;44750;52.040;7.472;2023-07-22T11:55:11;1.98;;;1.55;;
58972;SDS011;44750;52.040;7.472;2023-07-22T12:00:11;2.28;;;1.27;;
58972;SDS011;44750;52.040;7.472;2023-07-22T12:05:12;1.67;;;1.40;;
58972;SDS011;44750;52.040;7.472;2023-07-22T12:10:21;1.98;;;1.63;;
58972;SDS011;44750;52.040;7.472;2023-07-22T12:15:23;2.13;;;1.50;;
58972;SDS011;44750;52.040;7.472;2023-07-22T12:20:24;4.63;;;1.60;;
58972;SDS011;44750;52.040;7.472;2023-07-22T12:25:26;2.38;;;1.33;;
58972;SDS011;44750;52.040;7.472;2023-07-22T12:30:26;1.45;;;1.33;;
58972;SDS011;44750;52.040;7.472;2023-07-22T12:35:26;4.93;;;1.58;;
58972;SDS011;44750;52.040;7.472;2023-07-22T12:40:26;1.88;;;1.35;;
58972;SDS011;44750;52.040;7.472;2023-07-22T12:45:26;1.30;;;1.17;;
58972;SDS011;44750;52.040;7.472;2023-07-22T12:50:29;1.77;;;1.33;;
58972;SDS011;44750;52.040;7.472;2023-07-22T12:55:29;1.80;;;0.98;;
58972;SDS011;44750;52.040;7.472;2023-07-22T13:00:29;2.10;;;1.30;;
58972;SDS011;44750;52.040;7.472;2023-07-22T13:05:30;2.42;;;1.05;;
58972;SDS011;44750;52.040;7.472;2023-07-22T13:10:30;1.92;;;1.25;;
58972;SDS011;44750;52.040;7.472;2023-07-22T13:15:32;1.73;;;1.20;;
58972;SDS011;44750;52.040;7.472;2023-07-22T13:20:32;1.65;;;1.08;;
58972;SDS011;44750;52.040;7.472;2023-07-22T13:25:33;1.42;;;0.80;;
58972;SDS011;44750;52.040;7.472;2023-07-22T13:30:33;1.17;;;1.05;;
58972;SDS011;44750;52.040;7.472;2023-07-22T13:35:33;1.45;;;0.90;;
58972;SDS011;44750;52.040;7.472;2023-07-22T13:40:36;1.67;;;1.35;;
58972;SDS011;44750;52.040;7.472;2023-07-22T13:45:36;1.70;;;1.20;;
58972;SDS011;44750;52.040;7.472;2023-07-22T13:50:36;1.20;;;0.77;;
58972;SDS011;44750;52.040;7.472;2023-07-22T13:55:37;1.40;;;0.97;;
58972;SDS011;44750;52.040;7.472;2023-07-22T14:00:37;2.35;;;1.25;;
58972;SDS011;44750;52.040;7.472;2023-07-22T14:05:37;1.05;;;0.65;;
58972;SDS011;44750;52.040;7.472;2023-07-22T14:10:38;1.77;;;1.27;;
58972;SDS011;44750;52.040;7.472;2023-07-22T14:15:38;1.27;;;0.98;;
58972;SDS011;44750;52.040;7.472;2023-07-22T14:20:38;0.82;;;0.82;;
58972;SDS011;44750;52.040;7.472;2023-07-22T14:25:38;3.72;;;0.90;;
58972;SDS011;44750;52.040;7.472;2023-07-22T14:30:38;1.55;;;0.75;;
58972;SDS011;44750;52.040;7.472;2023-07-22T14:35:39;0.60;;;0.60;;
58972;SDS011;44750;52.040;7.472;2023-07-22T14:40:39;1.40;;;0.85;;
58972;SDS011;44750;52.040;7.472;2023-07-22T14:45:39;0.93;;;0.60;;
58972;SDS011;44750;52.040;7.472;2023-07-22T14:50:39;2.35;;;1.10;;
58972;SDS011;44750;52.040;7.472;2023-07-22T14:55:40;0.88;;;0.50;;
58972;SDS011;44750;52.040;7.472;2023-07-22T15:00:40;1.10;;;0.93;;
58972;SDS011;44750;52.040;7.472;2023-07-22T15:05:40;0.50;;;0.50;;
58972;SDS011;44750;52.040;7.472;2023-07-22T15:10:40;0.60;;;0.57;;
58972;SDS011;44750;52.040;7.472;2023-07-22T15:15:40;1.92;;;1.00;;
58972;SDS011;44750;52.040;7.472;2023-07-22T15:20:41;1.73;;;0.93;;
58972;SDS011;44750;52.040;7.472;2023-07-22T15:25:41;2.67;;;1.20;;
58972;SDS011;44750;52.040;7.472;2023-07-22T15:30:41;1.13;;;0.98;;
58972;SDS011;44750;52.040;7.472;2023-07-22T15:35:41;0.70;;;0.70;;
58972;SDS011;44750;52.040;7.472;2023-07-22T15:40:42;0.95;;;0.80;;
58972;SDS011;44750;52.040;7.472;2023-07-22T15:45:42;2.25;;;1.05;;
58972;SDS011;44750;52.040;7.472;2023-07-22T15:50:42;1.50;;;0.98;;
58972;SDS011;44750;52.040;7.472;2023-07-22T15:55:42;1.75;;;0.90;;
58972;SDS011;44750;52.040;7.472;2023-07-22T16:00:43;0.70;;;0.50;;
58972;SDS011;44750;52.040;7.472;2023-07-22T16:05:43;1.20;;;0.70;;
58972;SDS011;44750;52.040;7.472;2023-07-22T16:10:43;1.58;;;0.60;;
58972;SDS011;44750;52.040;7.472;2023-07-22T16:15:46;2.00;;;0.77;;
58972;SDS011;44750;52.040;7.472;2023-07-22T16:20:46;0.82;;;0.70;;
58972;SDS011;44750;52.040;7.472;2023-07-22T16:25:46;0.95;;;0.73;;
58972;SDS011;44750;52.040;7.472;2023-07-22T16:30:47;0.40;;;0.40;;
58972;SDS011;44750;52.040;7.472;2023-07-22T16:35:47;2.35;;;1.00;;
58972;SDS011;44750;52.040;7.472;2023-07-22T16:40:47;1.67;;;0.70;;
58972;SDS011;44750;52.040;7.472;2023-07-22T16:45:47;2.03;;;1.13;;
58972;SDS011;44750;52.040;7.472;2023-07-22T16:50:48;2.47;;;0.98;;
58972;SDS011;44750;52.040;7.472;2023-07-22T16:55:48;1.10;;;0.80;;
58972;SDS011;44750;52.040;7.472;2023-07-22T17:00:48;1.23;;;0.68;;
58972;SDS011;44750;52.040;7.472;2023-07-22T17:05:48;1.23;;;0.95;;
58972;SDS011;44750;52.040;7.472;2023-07-22T17:10:48;2.40;;;1.33;;
58972;SDS011;44750;52.040;7.472;2023-07-22T17:15:49;2.45;;;1.52;;
58972;SDS011;44750;52.040;7.472;2023-07-22T17:20:49;1.88;;;1.45;;
58972;SDS011;44750;52.040;7.472;2023-07-22T17:25:50;7.18;;;2.13;;
58972;SDS011;44750;52.040;7.472;2023-07-22T17:30:50;2.85;;;1.70;;
58972;SDS011;44750;52.040;7.472;2023-07-22T17:35:50;3.85;;;2.22;;
58972;SDS011;44750;52.040;7.472;2023-07-22T17:40:50;5.97;;;2.28;;
58972;SDS011;44750;52.040;7.472;2023-07-22T17:45:51;1.88;;;1.67;;
58972;SDS011;44750;52.040;7.472;2023-07-22T17:50:51;3.38;;;2.00;;
58972;SDS011;44750;52.040;7.472;2023-07-22T17:55:51;2.35;;;1.67;;
58972;SDS011;44750;52.040;7.472;2023-07-22T18:00:51;2.13;;;1.63;;
58972;SDS011;44750;52.040;7.472;2023-07-22T18:05:52;2.97;;;2.08;;
58972;SDS011;44750;52.040;7.472;2023-07-22T18:10:52;2.25;;;1.80;;
58972;SDS011;44750;52.040;7.472;2023-07-22T18:15:52;1.60;;;1.50;;
58972;SDS011;44750;52.040;7.472;2023-07-22T18:20:52;2.33;;;2.00;;
58972;SDS011;44750;52.040;7.472;2023-07-22T18:25:52;3.03;;;1.55;;
58972;SDS011;44750;52.040;7.472;2023-07-22T18:30:53;3.47;;;2.15;;
58972;SDS011;44750;52.040;7.472;2023-07-22T18:35:53;2.83;;;1.83;;
58972;SDS011;44750;52.040;7.472;2023-07-22T18:40:53;2.10;;;1.70;;
58972;SDS011;44750;52.040;7.472;2023-07-22T18:45:53;2.85;;;2.03;;
58972;SDS011;44750;52.040;7.472;2023-07-22T18:50:57;6.28;;;2.10;;
58972;SDS011;44750;52.040;7.472;2023-07-22T18:55:57;2.50;;;1.70;;
58972;SDS011;44750;52.040;7.472;2023-07-22T19:00:57;2.75;;;1.77;;
58972;SDS011;44750;52.040;7.472;2023-07-22T19:05:58;2.55;;;1.95;;
58972;SDS011;44750;52.040;7.472;2023-07-22T19:10:58;2.57;;;2.20;;
58972;SDS011;44750;52.040;7.472;2023-07-22T19:15:58;3.78;;;2.08;;
58972;SDS011;44750;52.040;7.472;2023-07-22T19:21:00;3.00;;;2.40;;
58972;SDS011;44750;52.040;7.472;2023-07-22T19:26:01;3.10;;;2.58;;
58972;SDS011;44750;52.040;7.472;2023-07-22T19:31:01;7.70;;;2.10;;
58972;SDS011;44750;52.040;7.472;2023-07-22T19:36:06;3.57;;;2.37;;
58972;SDS011;44750;52.040;7.472;2023-07-22T19:41:08;5.90;;;2.63;;
58972;SDS011;44750;52.040;7.472;2023-07-22T19:46:10;3.72;;;2.72;;
58972;SDS011;44750;52.040;7.472;2023-07-22T19:51:12;3.22;;;2.03;;
58972;SDS011;44750;52.040;7.472;2023-07-22T19:56:13;3.78;;;2.83;;
58972;SDS011;44750;52.040;7.472;2023-07-22T20:01:13;2.63;;;1.98;;
58972;SDS011;44750;52.040;7.472;2023-07-22T20:06:14;5.45;;;2.85;;
58972;SDS011;44750;52.040;7.472;2023-07-22T20:11:14;3.45;;;2.63;;
58972;SDS011;44750;52.040;7.472;2023-07-22T20:16:14;4.65;;;2.85;;
58972;SDS011;44750;52.040;7.472;2023-07-22T20:21:14;3.33;;;2.72;;
58972;SDS011;44750;52.040;7.472;2023-07-22T20:26:14;4.55;;;2.55;;
58972;SDS011;44750;52.040;7.472;2023-07-22T20:31:15;3.05;;;2.05;;
58972;SDS011;44750;52.040;7.472;2023-07-22T20:36:15;2.97;;;2.20;;
58972;SDS011;44750;52.040;7.472;2023-07-22T20:41:15;3.38;;;2.72;;
58972;SDS011;44750;52.040;7.472;2023-07-22T20:46:15;2.50;;;2.00;;
58972;SDS011;44750;52.040;7.472;2023-07-22T20:51:16;2.65;;;2.28;;
58972;SDS011;44750;52.040;7.472;2023-07-22T20:56:16;4.00;;;1.95;;
58972;SDS011;44750;52.040;7.472;2023-07-22T21:01:16;3.35;;;2.50;;
58972;SDS011;44750;52.040;7.472;2023-07-22T21:06:16;2.88;;;2.40;;
58972;SDS011;44750;52.040;7.472;2023-07-22T21:11:16;2.90;;;2.10;;
58972;SDS011;44750;52.040;7.472;2023-07-22T21:16:17;3.30;;;2.17;;
58972;SDS011;44750;52.040;7.472;2023-07-22T21:21:17;2.78;;;1.63;;
58972;SDS011;44750;52.040;7.472;2023-07-22T21:26:17;5.43;;;2.20;;
58972;SDS011;44750;52.040;7.472;2023-07-22T21:31:17;2.80;;;2.08;;
58972;SDS011;44750;52.040;7.472;2023-07-22T21:36:17;5.07;;;1.60;;
58972;SDS011;44750;52.040;7.472;2023-07-22T21:41:18;4.00;;;2.10;;
58972;SDS011;44750;52.040;7.472;2023-07-22T21:46:18;3.20;;;2.07;;
58972;SDS011;44750;52.040;7.472;2023-07-22T21:51:18;3.78;;;2.30;;
58972;SDS011;44750;52.040;7.472;2023-07-22T21:56:18;3.28;;;2.42;;
58972;SDS011;44750;52.040;7.472;2023-07-22T22:01:19;3.40;;;2.17;;
58972;SDS011;44750;52.040;7.472;2023-07-22T22:06:19;2.15;;;1.95;;
58972;SDS011;44750;52.040;7.472;2023-07-22T22:11:19;4.25;;;2.45;;
58972;SDS011;44750;52.040;7.472;2023-07-22T22:16:19;2.25;;;1.77;;
58972;SDS011;44750;52.040;7.472;2023-07-22T22:21:20;2.60;;;1.67;;
58972;SDS011;44750;52.040;7.472;2023-07-22T22:26:20;3.80;;;2.30;;
58972;SDS011;44750;52.040;7.472;2023-07-22T22:31:20;4.97;;;1.88;;
58972;SDS011;44750;52.040;7.472;2023-07-22T22:36:21;3.65;;;2.28;;
58972;SDS011;44750;52.040;7.472;2023-07-22T22:41:21;3.50;;;2.25;;
58972;SDS011;44750;52.040;7.472;2023-07-22T22:46:21;3.43;;;1.73;;
58972;SDS011;44750;52.040;7.472;2023-07-22T22:51:22;2.95;;;1.88;;
58972;SDS011;44750;52.040;7.472;2023-07-22T22:56:22;3.20;;;1.80;;
58972;SDS011;44750;52.040;7.472;2023-07-22T23:01:22;4.35;;;1.42;;
58972;SDS011;44750;52.040;7.472;2023-07-22T23:06:23;3.38;;;2.50;;
58972;SDS011;44750;52.040;7.472;2023-07-22T23:11:23;3.78;;;1.55;;
58972;SDS011;44750;52.040;7.472;2023-07-22T23:16:24;2.92;;;1.38;;
58972;SDS011;44750;52.040;7.472;2023-07-22T23:21:24;1.55;;;1.25;;
58972;SDS011;44750;52.040;7.472;2023-07-22T23:26:24;3.03;;;1.70;;
58972;SDS011;44750;52.040;7.472;2023-07-22T23:31:24;1.88;;;1.58;;
58972;SDS011;44750;52.040;7.472;2023-07-22T23:36:25;2.85;;;2.00;;
58972;SDS011;44750;52.040;7.472;2023-07-22T23:41:25;7.20;;;2.42;;
58972;SDS011;44750;52.040;7.472;2023-07-22T23:46:25;3.58;;;2.40;;
58972;SDS011;44750;52.040;7.472;2023-07-22T23:51:25;2.75;;;2.08;;
58972;SDS011;44750;52.040;7.472;2023-07-22T23:56:25;2.90;;;2.20;;
